Time;durP1;ratioP1;P1;durP2;ratioP2;P2;SDS_P1;SDS_P2;PMS_P1;PMS_P2;Temp;Humidity;BMP_temperature;BMP_pressure;BME280_temperature;BME280_humidity;BME280_pressure;Samples;Min_cycle;Max_cycle;Signal;HPM_P1;HPM_P2
2022/08/13 00:00:48;;;;;;;;;;;;;;;23.35;43.85;99697.16;4434719;32;33916;-81
2022/08/13 00:03:18;;;;;;;;;;;;;;;23.14;43.99;99697.44;4425577;32;33190;-81
2022/08/13 00:06:08;;;;;;;;;;;;;;;23.44;43.99;99700.78;4439668;32;34042;-81
2022/08/13 00:08:55;;;;;;;;;;;;;;;23.44;43.62;99696.25;4427986;32;33178;-81
2022/08/13 00:14:31;;;;;;;;;;;;;;;23.45;43.41;99700.66;4423315;32;34957;-81
2022/08/13 00:17:05;;;;;;;;;;;;;;;23.44;43.40;99690.00;4418046;32;34132;-81
2022/08/13 00:19:39;;;;;;;;;;;;;;;23.53;43.78;99697.19;4437691;32;31738;-81
2022/08/13 00:22:08;;;;;;;;;;;;;;;23.22;44.64;99684.06;4425118;32;34261;-81
2022/08/13 00:24:57;;;;;;;;;;;;;;;23.57;43.87;99682.41;4423452;32;33764;-81
2022/08/13 00:27:25;;;;;;;;;;;;;;;23.26;45.34;99681.91;4428269;32;33774;-81
2022/08/13 00:29:56;;;;;;;;;;;;;;;23.33;44.79;99683.00;4434399;32;31704;-81
2022/08/13 00:32:29;;;;;;;;;;;;;;;23.22;45.41;99677.84;4440853;32;34467;-81
2022/08/13 00:35:06;;;;;;;;;;;;;;;22.99;45.82;99675.53;4441389;32;34467;-81
2022/08/13 00:37:48;;;;;;;;;;;;;;;22.92;45.56;99668.19;4429476;32;33923;-81
2022/08/13 00:40:19;;;;;;;;;;;;;;;23.19;44.96;99670.03;4441303;32;33048;-81
2022/08/13 00:43:03;;;;;;;;;;;;;;;23.17;44.96;99664.81;4441558;32;33916;-81
2022/08/13 00:45:32;;;;;;;;;;;;;;;23.44;44.60;99672.00;4426064;32;33393;-81
2022/08/13 00:50:50;;;;;;;;;;;;;;;23.30;44.97;99668.97;4442751;32;33739;-81
2022/08/13 00:53:19;;;;;;;;;;;;;;;23.08;45.31;99668.41;4433892;32;35327;-81
2022/08/13 00:55:55;;;;;;;;;;;;;;;23.15;45.34;99665.97;4422513;32;32776;-81
2022/08/13 00:58:23;;;;;;;;;;;;;;;23.12;45.42;99660.84;4440401;32;33956;-81
2022/08/13 01:00:56;;;;;;;;;;;;;;;23.03;46.18;99665.31;4426654;32;33351;-81
2022/08/13 01:03:25;;;;;;;;;;;;;;;22.88;46.57;99661.38;4453445;32;34436;-81
2022/08/13 01:06:13;;;;;;;;;;;;;;;23.18;45.93;99663.81;4442243;32;33475;-81
2022/08/13 01:08:46;;;;;;;;;;;;;;;23.08;46.43;99663.03;4453377;32;33459;-81
2022/08/13 01:11:25;;;;;;;;;;;;;;;22.94;46.83;99655.44;4428719;32;32743;-81
2022/08/13 01:13:53;;;;;;;;;;;;;;;23.10;46.49;99652.94;4427262;32;32925;-81
2022/08/13 01:16:20;;;;;;;;;;;;;;;23.23;46.24;99648.03;4440524;32;33961;-81
2022/08/13 01:18:51;;;;;;;;;;;;;;;23.06;46.82;99651.53;4441116;32;33917;-81
2022/08/13 01:21:24;;;;;;;;;;;;;;;23.04;47.10;99645.47;4440690;32;33375;-81
2022/08/13 01:24:09;;;;;;;;;;;;;;;23.35;46.51;99651.34;4442105;32;33981;-81
2022/08/13 01:26:42;;;;;;;;;;;;;;;23.13;46.88;99652.66;4440974;32;34119;-81
2022/08/13 01:29:16;;;;;;;;;;;;;;;23.29;46.50;99648.44;4440780;32;34493;-81
2022/08/13 01:31:49;;;;;;;;;;;;;;;23.17;46.97;99637.88;4428355;32;32502;-81
2022/08/13 01:34:17;;;;;;;;;;;;;;;23.23;46.65;99639.12;4440320;32;34028;-81
2022/08/13 01:36:53;;;;;;;;;;;;;;;23.10;47.04;99635.94;4441353;32;34142;-81
2022/08/13 01:39:27;;;;;;;;;;;;;;;23.29;47.25;99634.97;4440595;32;34211;-81
2022/08/13 01:42:03;;;;;;;;;;;;;;;23.27;47.19;99631.59;4441595;32;32225;-81
2022/08/13 01:44:32;;;;;;;;;;;;;;;23.19;47.05;99633.19;4440300;32;34100;-81
2022/08/13 01:52:41;;;;;;;;;;;;;;;23.37;46.79;99635.06;4441755;32;34317;-81
2022/08/13 01:55:10;;;;;;;;;;;;;;;23.43;47.08;99634.44;4428609;32;33975;-81
2022/08/13 01:57:44;;;;;;;;;;;;;;;23.33;47.19;99630.97;4439935;32;33133;-81
2022/08/13 02:00:21;;;;;;;;;;;;;;;23.22;48.04;99629.34;4439980;32;33080;-81
2022/08/13 02:02:54;;;;;;;;;;;;;;;23.61;47.07;99632.59;4440780;32;34095;-81
2022/08/13 02:05:23;;;;;;;;;;;;;;;23.24;47.54;99635.41;4439818;32;34750;-80
2022/08/13 02:08:11;;;;;;;;;;;;;;;23.23;47.77;99628.34;4440101;32;33923;-81
2022/08/13 02:10:42;;;;;;;;;;;;;;;23.12;48.28;99629.41;4440375;32;35463;-81
2022/08/13 02:13:16;;;;;;;;;;;;;;;23.20;48.49;99629.47;4440059;32;33918;-81
2022/08/13 02:15:45;;;;;;;;;;;;;;;23.37;47.74;99622.44;4440148;32;34769;-81
2022/08/13 02:18:23;;;;;;;;;;;;;;;23.55;47.13;99625.13;4430970;32;33545;-81
2022/08/13 02:20:54;;;;;;;;;;;;;;;23.57;47.22;99630.38;4414563;32;33011;-81
2022/08/13 02:23:25;;;;;;;;;;;;;;;23.54;47.59;99626.09;4437619;32;32874;-81
2022/08/13 02:26:13;;;;;;;;;;;;;;;23.35;47.49;99619.03;4444026;32;33877;-81
2022/08/13 02:28:42;;;;;;;;;;;;;;;23.57;47.32;99623.12;4429027;32;34330;-81
2022/08/13 02:31:16;;;;;;;;;;;;;;;23.76;46.29;99625.69;4442772;32;34102;-81
2022/08/13 02:33:53;;;;;;;;;;;;;;;23.85;45.91;99625.75;4442915;32;32823;-81
2022/08/13 02:36:22;;;;;;;;;;;;;;;23.91;45.67;99619.72;4428563;32;34196;-81
2022/08/13 02:38:58;;;;;;;;;;;;;;;23.94;45.57;99619.41;4439703;32;32790;-81
2022/08/13 02:41:43;;;;;;;;;;;;;;;23.99;45.34;99627.87;4441667;32;34053;-81
2022/08/13 02:44:25;;;;;;;;;;;;;;;24.21;44.91;99623.81;4440805;32;34286;-81
2022/08/13 02:47:05;;;;;;;;;;;;;;;24.09;45.20;99623.22;4443336;32;33962;-81
2022/08/13 02:49:36;;;;;;;;;;;;;;;24.23;44.92;99625.34;4438527;32;34902;-81
2022/08/13 02:52:13;;;;;;;;;;;;;;;24.22;45.16;99620.97;4442887;32;33908;-81
2022/08/13 02:54:43;;;;;;;;;;;;;;;24.27;45.02;99615.09;4441938;32;33175;-81
2022/08/13 02:57:22;;;;;;;;;;;;;;;24.45;44.62;99620.44;4429736;32;32768;-81
2022/08/13 02:59:50;;;;;;;;;;;;;;;24.20;45.13;99614.03;4433291;32;34903;-81
2022/08/13 03:02:44;;;;;;;;;;;;;;;24.26;45.20;99610.72;4443244;32;33910;-81
2022/08/13 03:05:14;;;;;;;;;;;;;;;24.35;44.92;99612.44;4429308;32;32527;-81
2022/08/13 03:07:43;;;;;;;;;;;;;;;24.43;44.73;99614.38;4428296;32;33014;-81
2022/08/13 03:10:18;;;;;;;;;;;;;;;24.52;44.33;99608.00;4429703;32;32883;-81
2022/08/13 03:13:01;;;;;;;;;;;;;;;24.31;44.88;99618.31;4442951;32;34002;-81
2022/08/13 03:15:29;;;;;;;;;;;;;;;24.39;44.86;99613.00;4437274;32;32760;-81
2022/08/13 03:18:01;;;;;;;;;;;;;;;24.19;45.23;99607.78;4442656;32;34877;-81
2022/08/13 03:20:28;;;;;;;;;;;;;;;24.28;45.01;99606.84;4441728;32;34134;-81
2022/08/13 03:23:03;;;;;;;;;;;;;;;24.42;44.74;99599.19;4442393;32;33762;-81
2022/08/13 03:25:31;;;;;;;;;;;;;;;24.38;44.79;99612.16;4441500;32;32158;-81
2022/08/13 03:27:58;;;;;;;;;;;;;;;24.04;45.52;99603.97;4455062;32;34862;-81
2022/08/13 03:30:27;;;;;;;;;;;;;;;24.01;45.72;99609.69;4441115;32;34823;-81
2022/08/13 03:32:56;;;;;;;;;;;;;;;24.25;45.17;99599.03;4437837;32;33190;-81
2022/08/13 03:35:27;;;;;;;;;;;;;;;24.35;44.96;99600.78;4441992;32;33000;-81
2022/08/13 03:38:11;;;;;;;;;;;;;;;24.36;44.87;99595.28;4429678;32;34240;-81
2022/08/13 03:43:33;;;;;;;;;;;;;;;24.42;44.76;99589.22;4452330;32;34853;-81
2022/08/13 03:46:26;;;;;;;;;;;;;;;24.22;45.25;99591.28;4444123;32;33657;-81
2022/08/13 03:48:54;;;;;;;;;;;;;;;24.52;44.50;99586.41;4441448;32;34192;-81
2022/08/13 03:51:23;;;;;;;;;;;;;;;24.58;44.50;99593.84;4437457;32;33904;-81
2022/08/13 03:54:01;;;;;;;;;;;;;;;24.53;44.68;99582.69;4426980;32;34014;-82
2022/08/13 03:56:31;;;;;;;;;;;;;;;24.50;44.75;99583.88;4413270;32;32779;-81
2022/08/13 03:59:02;;;;;;;;;;;;;;;24.44;45.18;99581.81;4425743;32;33827;-81
2022/08/13 04:01:30;;;;;;;;;;;;;;;24.41;45.06;99584.00;4425481;32;34757;-81
2022/08/13 04:03:58;;;;;;;;;;;;;;;24.31;45.39;99592.19;4424352;32;34280;-81
2022/08/13 04:06:27;;;;;;;;;;;;;;;24.43;45.12;99584.69;4425466;32;34067;-81
2022/08/13 04:08:56;;;;;;;;;;;;;;;24.40;45.37;99585.00;4425913;32;34165;-81
2022/08/13 04:11:26;;;;;;;;;;;;;;;24.09;46.98;99585.47;4413184;32;33854;-81
2022/08/13 04:14:00;;;;;;;;;;;;;;;24.28;46.11;99589.81;4426726;32;34240;-81
2022/08/13 04:16:47;;;;;;;;;;;;;;;24.07;46.93;99583.91;4426530;32;32529;-81
2022/08/13 04:19:15;;;;;;;;;;;;;;;24.19;47.05;99579.97;4425082;32;34834;-81
2022/08/13 04:21:45;;;;;;;;;;;;;;;24.33;46.61;99587.47;4438405;32;34592;-81
2022/08/13 04:24:18;;;;;;;;;;;;;;;24.48;46.31;99585.03;4425653;32;32937;-81
2022/08/13 04:26:48;;;;;;;;;;;;;;;24.39;46.72;99581.44;4422393;32;33086;-81
2022/08/13 04:29:17;;;;;;;;;;;;;;;24.29;47.54;99580.69;4420601;32;34564;-81
2022/08/13 04:31:48;;;;;;;;;;;;;;;24.21;48.33;99577.94;4438805;32;34323;-81
2022/08/13 04:34:19;;;;;;;;;;;;;;;24.38;47.72;99578.91;4424170;32;34529;-81
2022/08/13 04:37:09;;;;;;;;;;;;;;;24.24;48.82;99577.62;4418319;32;32957;-81
2022/08/13 04:39:52;;;;;;;;;;;;;;;24.30;48.63;99584.22;4427018;32;35466;-81
2022/08/13 04:42:44;;;;;;;;;;;;;;;24.24;49.02;99583.88;4422092;32;34570;-81
2022/08/13 04:45:17;;;;;;;;;;;;;;;24.14;50.10;99582.28;4426399;32;34171;-81
2022/08/13 04:47:48;;;;;;;;;;;;;;;24.25;49.40;99574.75;4425228;32;33943;-81
2022/08/13 04:50:17;;;;;;;;;;;;;;;24.12;50.42;99568.09;4426456;32;34510;-81
2022/08/13 04:52:46;;;;;;;;;;;;;;;23.86;50.39;99568.13;4441233;32;34063;-81
2022/08/13 04:55:16;;;;;;;;;;;;;;;24.12;50.01;99566.28;4454881;32;33469;-81
2022/08/13 04:57:45;;;;;;;;;;;;;;;24.33;49.50;99575.84;4422312;32;32585;-81
2022/08/13 05:00:25;;;;;;;;;;;;;;;24.44;49.30;99573.72;4441859;32;32590;-81
2022/08/13 05:02:53;;;;;;;;;;;;;;;24.54;48.87;99576.28;4428254;32;35004;-81
2022/08/13 05:05:24;;;;;;;;;;;;;;;24.82;48.33;99576.91;4440708;32;33719;-81
2022/08/13 05:07:54;;;;;;;;;;;;;;;24.70;48.79;99579.06;4440797;32;33077;-81
2022/08/13 05:10:23;;;;;;;;;;;;;;;24.45;49.47;99580.84;4441088;32;34758;-81
2022/08/13 05:13:01;;;;;;;;;;;;;;;24.60;49.45;99580.22;4441233;32;33967;-81
2022/08/13 05:15:39;;;;;;;;;;;;;;;24.77;49.64;99584.66;4441339;32;33871;-81
2022/08/13 05:18:14;;;;;;;;;;;;;;;24.85;48.73;99586.53;4453697;32;34178;-81
2022/08/13 05:20:59;;;;;;;;;;;;;;;25.05;47.48;99585.25;4442493;32;32629;-81
2022/08/13 05:23:34;;;;;;;;;;;;;;;24.90;48.07;99584.19;4428367;32;32804;-81
2022/08/13 05:26:24;;;;;;;;;;;;;;;25.17;47.54;99580.44;4429337;32;32800;-82
2022/08/13 05:29:05;;;;;;;;;;;;;;;24.95;48.76;99587.25;4442054;32;34102;-81
2022/08/13 05:31:36;;;;;;;;;;;;;;;24.93;47.23;99583.88;4440640;32;34891;-81
2022/08/13 05:34:28;;;;;;;;;;;;;;;25.21;46.41;99588.03;4443271;32;34777;-81
2022/08/13 05:36:58;;;;;;;;;;;;;;;25.67;45.50;99587.53;4441435;32;34581;-81
2022/08/13 05:39:48;;;;;;;;;;;;;;;25.60;44.77;99587.41;4442746;32;33072;-81
2022/08/13 05:42:20;;;;;;;;;;;;;;;25.83;44.49;99584.00;4440621;32;34447;-81
2022/08/13 05:44:56;;;;;;;;;;;;;;;25.69;44.04;99589.09;4441549;32;34072;-81
2022/08/13 05:47:27;;;;;;;;;;;;;;;26.09;43.29;99576.56;4437841;32;34810;-81
2022/08/13 05:49:57;;;;;;;;;;;;;;;26.03;43.35;99582.66;4440260;32;32916;-81
2022/08/13 05:52:26;;;;;;;;;;;;;;;25.91;43.04;99568.63;4412290;32;33197;-81
2022/08/13 05:55:06;;;;;;;;;;;;;;;26.19;42.93;99574.50;4417850;32;33058;-81
2022/08/13 05:57:55;;;;;;;;;;;;;;;26.17;41.62;99578.41;4427099;32;32720;-81
2022/08/13 06:03:24;;;;;;;;;;;;;;;26.39;41.80;99576.81;4427217;32;34673;-81
2022/08/13 06:06:20;;;;;;;;;;;;;;;26.52;42.10;99577.13;4431553;32;35014;-81
2022/08/13 06:08:56;;;;;;;;;;;;;;;26.17;41.38;99579.25;4425429;32;34977;-81
2022/08/13 06:11:30;;;;;;;;;;;;;;;26.28;41.90;99573.47;4428180;32;32091;-81
2022/08/13 06:14:21;;;;;;;;;;;;;;;26.12;42.41;99576.22;4427497;32;33218;-81
2022/08/13 06:16:59;;;;;;;;;;;;;;;26.14;41.84;99578.75;4432432;32;32803;-81
2022/08/13 06:19:33;;;;;;;;;;;;;;;26.16;41.58;99579.41;4411527;32;34461;-81
2022/08/13 06:22:06;;;;;;;;;;;;;;;26.54;41.97;99567.00;4430162;32;34039;-81
2022/08/13 06:24:40;;;;;;;;;;;;;;;26.21;41.39;99572.47;4424278;32;32676;-81
2022/08/13 06:30:18;;;;;;;;;;;;;;;26.49;40.85;99578.34;4432998;32;32820;-81
2022/08/13 06:33:02;;;;;;;;;;;;;;;26.83;40.83;99589.87;4425712;32;32988;-81
2022/08/13 06:36:10;;;;;;;;;;;;;;;26.52;40.92;99593.38;4432999;32;34726;-81
2022/08/13 06:38:48;;;;;;;;;;;;;;;26.34;41.58;99607.09;4438445;32;34331;-81
2022/08/13 06:41:19;;;;;;;;;;;;;;;26.74;40.51;99608.88;4412160;32;34126;-81
2022/08/13 06:43:51;;;;;;;;;;;;;;;26.78;41.42;99609.38;4424650;32;34080;-81
2022/08/13 06:46:29;;;;;;;;;;;;;;;26.87;40.94;99616.44;4429389;32;33284;-81
2022/08/13 06:48:59;;;;;;;;;;;;;;;27.41;39.14;99607.53;4437127;32;32826;-81
2022/08/13 06:51:31;;;;;;;;;;;;;;;27.38;39.85;99592.44;4431236;32;32676;-81
2022/08/13 06:54:08;;;;;;;;;;;;;;;27.25;39.93;99584.06;4437291;32;33107;-81
2022/08/13 06:56:57;;;;;;;;;;;;;;;27.36;38.88;99583.66;4412557;32;34416;-81
2022/08/13 06:59:49;;;;;;;;;;;;;;;27.43;39.92;99591.91;4436979;32;33583;-81
2022/08/13 07:02:42;;;;;;;;;;;;;;;27.33;40.42;99600.28;4437148;32;32738;-81
2022/08/13 07:05:30;;;;;;;;;;;;;;;27.23;40.45;99603.22;4436785;32;34318;-81
2022/08/13 07:08:04;;;;;;;;;;;;;;;27.59;39.17;99602.66;4423269;32;34151;-81
2022/08/13 07:10:36;;;;;;;;;;;;;;;27.73;38.03;99592.91;4436760;32;34807;-81
2022/08/13 07:13:07;;;;;;;;;;;;;;;27.55;40.19;99595.91;4438843;32;35017;-81
2022/08/13 07:15:55;;;;;;;;;;;;;;;27.67;39.81;99591.72;4428594;32;33710;-82
2022/08/13 07:18:28;;;;;;;;;;;;;;;27.83;39.19;99592.66;4426357;32;33408;-81
2022/08/13 07:20:56;;;;;;;;;;;;;;;27.59;39.78;99594.50;4438977;32;35031;-81
2022/08/13 07:23:31;;;;;;;;;;;;;;;27.89;38.85;99589.19;4422305;32;32903;-81
2022/08/13 07:26:21;;;;;;;;;;;;;;;28.00;37.89;99580.59;4439136;32;33704;-81
2022/08/13 07:28:54;;;;;;;;;;;;;;;27.99;38.32;99579.75;4426671;32;33306;-81
2022/08/13 07:31:30;;;;;;;;;;;;;;;28.06;38.44;99579.88;4439315;32;34669;-81
2022/08/13 07:34:19;;;;;;;;;;;;;;;27.98;40.73;99590.81;4440577;32;32610;-81
2022/08/13 07:36:56;;;;;;;;;;;;;;;27.97;38.62;99583.69;4427055;32;33686;-81
2022/08/13 07:39:28;;;;;;;;;;;;;;;28.02;38.52;99589.41;4426348;32;32729;-81
2022/08/13 07:41:58;;;;;;;;;;;;;;;27.87;38.52;99602.09;4413622;32;33671;-81
2022/08/13 07:44:31;;;;;;;;;;;;;;;27.99;38.53;99593.31;4439116;32;32809;-81
2022/08/13 07:47:21;;;;;;;;;;;;;;;28.17;38.01;99593.00;4438854;32;34054;-81
2022/08/13 07:49:56;;;;;;;;;;;;;;;28.54;37.59;99592.09;4438710;32;32861;-81
2022/08/13 07:52:29;;;;;;;;;;;;;;;28.10;38.49;99583.88;4438966;32;34526;-81
2022/08/13 07:55:01;;;;;;;;;;;;;;;28.29;37.72;99571.63;4438779;32;34066;-81
2022/08/13 07:57:31;;;;;;;;;;;;;;;28.52;37.82;99568.88;4413696;32;32125;-81
2022/08/13 08:00:21;;;;;;;;;;;;;;;29.12;36.92;99561.47;4437654;32;34227;-81
2022/08/13 08:02:57;;;;;;;;;;;;;;;29.52;36.57;99571.72;4438656;32;32946;-81
2022/08/13 08:05:34;;;;;;;;;;;;;;;29.71;34.89;99572.97;4434250;32;33988;-81
2022/08/13 08:08:10;;;;;;;;;;;;;;;29.30;35.42;99568.16;4439139;32;33820;-81
2022/08/13 08:10:40;;;;;;;;;;;;;;;29.26;36.24;99569.59;4438389;32;34156;-81
2022/08/13 08:13:12;;;;;;;;;;;;;;;29.29;35.69;99569.22;4426027;32;33505;-81
2022/08/13 08:15:44;;;;;;;;;;;;;;;29.00;37.08;99566.56;4425860;32;33114;-81
2022/08/13 08:18:33;;;;;;;;;;;;;;;28.89;38.46;99572.47;4427798;32;32105;-81
2022/08/13 08:21:28;;;;;;;;;;;;;;;28.58;38.51;99570.81;4439536;32;34721;-81
2022/08/13 08:24:32;;;;;;;;;;;;;;;28.86;37.34;99559.25;4428949;32;35039;-81
2022/08/13 08:27:04;;;;;;;;;;;;;;;29.22;35.98;99572.88;4438486;32;34692;-81
2022/08/13 08:29:38;;;;;;;;;;;;;;;29.72;35.21;99561.06;4425521;32;32888;-81
2022/08/13 08:32:23;;;;;;;;;;;;;;;29.60;35.79;99565.34;4426990;32;32601;-81
2022/08/13 08:35:04;;;;;;;;;;;;;;;29.68;35.63;99557.03;4426533;32;33902;-81
2022/08/13 08:43:27;;;;;;;;;;;;;;;29.25;36.47;99556.19;4422342;32;33633;-81
2022/08/13 08:46:17;;;;;;;;;;;;;;;29.46;35.92;99553.47;4425377;32;34789;-81
2022/08/13 08:48:47;;;;;;;;;;;;;;;29.77;36.34;99547.69;4425894;32;34358;-81
2022/08/13 08:51:24;;;;;;;;;;;;;;;29.88;34.60;99543.59;4437693;32;32531;-81
2022/08/13 08:53:53;;;;;;;;;;;;;;;30.14;34.18;99540.22;4425547;32;35058;-81
2022/08/13 08:56:56;;;;;;;;;;;;;;;30.26;34.33;99541.34;4424457;32;34433;-81
2022/08/13 08:59:35;;;;;;;;;;;;;;;30.67;34.46;99528.75;4425355;32;34245;-81
2022/08/13 09:02:24;;;;;;;;;;;;;;;30.70;33.05;99531.91;4427661;32;33080;-81
2022/08/13 09:04:55;;;;;;;;;;;;;;;30.35;34.52;99536.59;4436995;32;34918;-81
2022/08/13 09:07:29;;;;;;;;;;;;;;;30.38;34.44;99533.44;4437091;32;33710;-81
2022/08/13 09:09:58;;;;;;;;;;;;;;;30.59;33.98;99527.91;4431910;32;33214;-81
2022/08/13 09:12:29;;;;;;;;;;;;;;;30.26;33.90;99530.47;4412913;32;32330;-81
2022/08/13 09:14:59;;;;;;;;;;;;;;;30.20;34.14;99528.56;4425224;32;34402;-81
2022/08/13 09:17:29;;;;;;;;;;;;;;;30.17;35.53;99528.94;4438946;32;33787;-81
2022/08/13 09:20:12;;;;;;;;;;;;;;;30.58;34.11;99517.22;4426071;32;33891;-81
2022/08/13 09:23:07;;;;;;;;;;;;;;;30.59;33.45;99518.88;4432448;32;33142;-81
2022/08/13 09:25:56;;;;;;;;;;;;;;;30.44;33.44;99515.47;4427921;32;33877;-82
2022/08/13 09:28:27;;;;;;;;;;;;;;;30.27;34.72;99523.97;4438761;32;33969;-81
2022/08/13 09:31:07;;;;;;;;;;;;;;;30.88;34.41;99514.19;4413683;32;33731;-82
2022/08/13 09:33:53;;;;;;;;;;;;;;;31.07;33.27;99508.78;4426670;32;32606;-81
2022/08/13 09:36:31;;;;;;;;;;;;;;;30.83;33.58;99506.63;4426472;32;35205;-81
2022/08/13 09:39:04;;;;;;;;;;;;;;;30.50;33.57;99506.47;4407528;32;33560;-81
2022/08/13 09:41:40;;;;;;;;;;;;;;;30.56;34.77;99501.06;4419114;32;34391;-81
2022/08/13 09:44:18;;;;;;;;;;;;;;;31.35;33.22;99494.16;4424639;32;32275;-82
2022/08/13 09:49:33;;;;;;;;;;;;;;;30.44;33.34;99496.41;4433784;32;33961;-81
2022/08/13 09:52:22;;;;;;;;;;;;;;;30.76;33.67;99492.97;4432252;32;33271;-82
2022/08/13 09:54:54;;;;;;;;;;;;;;;31.50;34.57;99483.03;4425267;32;33268;-81
2022/08/13 09:57:22;;;;;;;;;;;;;;;31.90;31.86;99491.22;4412317;32;33021;-83
2022/08/13 09:59:51;;;;;;;;;;;;;;;31.95;33.07;99477.75;4414299;32;34238;-82
2022/08/13 10:02:32;;;;;;;;;;;;;;;32.22;31.98;99479.38;4415272;32;32518;-82
2022/08/13 10:05:01;;;;;;;;;;;;;;;32.37;31.01;99471.78;4425682;32;33930;-81
2022/08/13 10:07:31;;;;;;;;;;;;;;;32.56;29.10;99482.84;4424955;32;35008;-81
2022/08/13 10:10:14;;;;;;;;;;;;;;;32.73;29.46;99480.47;4422430;32;33534;-81
2022/08/13 10:13:00;;;;;;;;;;;;;;;32.64;30.84;99488.06;4428685;32;33183;-82
2022/08/13 10:15:29;;;;;;;;;;;;;;;32.35;29.58;99479.34;4424506;32;33072;-82
2022/08/13 10:18:04;;;;;;;;;;;;;;;31.80;29.60;99492.47;4412181;32;33121;-82
2022/08/13 10:20:39;;;;;;;;;;;;;;;30.66;31.81;99484.31;4405669;32;33357;-81
2022/08/13 10:23:10;;;;;;;;;;;;;;;31.61;31.56;99466.03;4425346;32;34797;-81
2022/08/13 10:25:39;;;;;;;;;;;;;;;32.01;31.36;99468.75;4425106;32;33418;-81
2022/08/13 10:28:26;;;;;;;;;;;;;;;32.46;29.88;99475.09;4426412;32;33288;-81
2022/08/13 10:31:08;;;;;;;;;;;;;;;32.34;29.77;99471.38;4412828;32;32761;-81
2022/08/13 10:33:59;;;;;;;;;;;;;;;32.23;29.22;99472.00;4427651;32;34365;-81
2022/08/13 10:41:44;;;;;;;;;;;;;;;31.69;30.38;99464.97;4425520;32;34000;-82
2022/08/13 10:44:30;;;;;;;;;;;;;;;32.03;29.83;99455.69;4427076;32;34313;-81
2022/08/13 10:47:03;;;;;;;;;;;;;;;31.59;32.07;99462.69;4410280;32;32250;-81
2022/08/13 10:49:33;;;;;;;;;;;;;;;32.13;30.00;99465.09;4417304;32;33033;-82
2022/08/13 10:52:04;;;;;;;;;;;;;;;32.16;30.49;99469.31;4439273;32;34590;-82
2022/08/13 10:54:34;;;;;;;;;;;;;;;31.27;29.77;99470.66;4432825;32;33986;-82
2022/08/13 10:57:12;;;;;;;;;;;;;;;31.99;29.94;99462.63;4425682;32;31718;-81
2022/08/13 10:59:41;;;;;;;;;;;;;;;32.15;30.00;99459.44;4425368;32;33991;-82
2022/08/13 11:02:10;;;;;;;;;;;;;;;32.30;30.53;99454.56;4429686;32;34008;-82
2022/08/13 11:04:48;;;;;;;;;;;;;;;32.53;28.97;99450.50;4433834;32;34149;-82
2022/08/13 11:07:20;;;;;;;;;;;;;;;32.55;28.90;99451.09;4431219;32;33019;-81
2022/08/13 11:09:50;;;;;;;;;;;;;;;32.18;29.03;99450.81;4426393;32;34220;-81
2022/08/13 11:12:19;;;;;;;;;;;;;;;31.99;31.28;99452.53;4436067;32;33978;-81
2022/08/13 11:14:53;;;;;;;;;;;;;;;31.83;30.19;99448.41;4425472;32;33437;-81
2022/08/13 11:17:28;;;;;;;;;;;;;;;32.29;28.65;99441.97;4432055;32;33181;-82
2022/08/13 11:20:20;;;;;;;;;;;;;;;32.17;28.75;99443.66;4440081;32;33811;-81
2022/08/13 11:22:52;;;;;;;;;;;;;;;31.77;28.14;99441.03;4425745;32;33782;-81
2022/08/13 11:25:21;;;;;;;;;;;;;;;31.57;28.54;99443.81;4438350;32;35021;-81
2022/08/13 11:28:12;;;;;;;;;;;;;;;31.16;29.55;99446.72;4430277;32;33245;-81
2022/08/13 11:30:51;;;;;;;;;;;;;;;31.56;29.94;99435.81;4423212;32;33113;-81
2022/08/13 11:36:19;;;;;;;;;;;;;;;31.74;29.43;99433.25;4430182;32;33783;-82
2022/08/13 11:38:47;;;;;;;;;;;;;;;32.02;28.27;99427.56;4426573;32;33011;-81
2022/08/13 11:41:20;;;;;;;;;;;;;;;31.56;28.31;99433.91;4419693;32;32892;-81
2022/08/13 11:43:57;;;;;;;;;;;;;;;31.70;30.16;99432.00;4417117;32;34087;-81
2022/08/13 11:46:29;;;;;;;;;;;;;;;32.06;28.17;99426.06;4437922;32;34263;-81
2022/08/13 11:48:58;;;;;;;;;;;;;;;32.00;29.58;99420.63;4425509;32;31790;-82
2022/08/13 11:51:48;;;;;;;;;;;;;;;32.05;27.95;99426.28;4426128;32;35093;-81
2022/08/13 11:54:20;;;;;;;;;;;;;;;32.08;28.72;99428.56;4426087;32;34400;-81
2022/08/13 11:57:01;;;;;;;;;;;;;;;32.32;28.12;99414.19;4414610;32;34176;-82
2022/08/13 11:59:37;;;;;;;;;;;;;;;32.13;28.41;99415.09;4426717;32;33198;-82
2022/08/13 12:02:13;;;;;;;;;;;;;;;32.20;29.29;99418.66;4426534;32;33807;-82
2022/08/13 12:05:01;;;;;;;;;;;;;;;32.40;27.04;99426.81;4427176;32;35040;-82
2022/08/13 12:07:32;;;;;;;;;;;;;;;32.62;26.83;99419.13;4412942;32;32729;-82
2022/08/13 12:10:10;;;;;;;;;;;;;;;32.60;27.23;99427.53;4393923;32;31893;-81
2022/08/13 12:13:00;;;;;;;;;;;;;;;32.84;27.33;99422.34;4428260;32;34853;-81
2022/08/13 12:15:37;;;;;;;;;;;;;;;32.64;26.84;99422.47;4426768;32;33992;-82
2022/08/13 12:18:27;;;;;;;;;;;;;;;32.56;27.91;99415.34;4428154;32;34393;-82
2022/08/13 12:20:56;;;;;;;;;;;;;;;32.67;26.56;99410.25;4425830;32;32592;-81
2022/08/13 12:23:28;;;;;;;;;;;;;;;32.51;27.40;99406.97;4426214;32;33843;-81
2022/08/13 12:26:03;;;;;;;;;;;;;;;32.49;28.67;99411.00;4413856;32;34489;-81
2022/08/13 12:28:34;;;;;;;;;;;;;;;32.79;26.08;99403.84;4426034;32;34283;-81
2022/08/13 12:31:03;;;;;;;;;;;;;;;32.68;27.24;99396.38;4412619;32;33054;-81
2022/08/13 12:33:36;;;;;;;;;;;;;;;32.60;26.50;99404.81;4412616;32;34460;-81
2022/08/13 12:36:10;;;;;;;;;;;;;;;32.78;26.20;99402.19;4424938;32;34269;-81
2022/08/13 12:38:46;;;;;;;;;;;;;;;32.82;27.36;99397.13;4413285;32;33295;-82
2022/08/13 12:41:30;;;;;;;;;;;;;;;32.49;28.55;99397.34;4427398;32;33269;-82
2022/08/13 12:44:09;;;;;;;;;;;;;;;32.77;26.56;99389.59;4439587;32;34880;-81
2022/08/13 12:46:58;;;;;;;;;;;;;;;32.88;26.27;99385.28;4427352;32;34704;-82
2022/08/13 12:49:30;;;;;;;;;;;;;;;32.25;27.95;99380.59;4426399;32;34029;-82
2022/08/13 12:52:18;;;;;;;;;;;;;;;32.75;27.50;99375.28;4422850;32;33187;-81
2022/08/13 12:54:48;;;;;;;;;;;;;;;32.53;26.46;99379.44;4409993;32;34145;-81
2022/08/13 12:57:38;;;;;;;;;;;;;;;31.75;29.25;99377.59;4424189;32;34294;-81
2022/08/13 13:00:28;;;;;;;;;;;;;;;32.10;27.29;99377.31;4417881;32;32660;-82
2022/08/13 13:03:00;;;;;;;;;;;;;;;32.26;26.98;99384.19;4422497;32;33116;-82
2022/08/13 13:05:48;;;;;;;;;;;;;;;32.10;26.95;99377.31;4420752;32;33303;-82
2022/08/13 13:08:26;;;;;;;;;;;;;;;32.43;26.70;99373.59;4416234;32;33400;-82
2022/08/13 13:11:03;;;;;;;;;;;;;;;32.41;26.75;99370.25;4421566;32;34447;-82
2022/08/13 13:13:46;;;;;;;;;;;;;;;32.47;26.04;99366.63;4422823;32;33206;-82
2022/08/13 13:16:35;;;;;;;;;;;;;;;32.10;26.78;99352.75;4422190;32;34933;-81
2022/08/13 13:19:06;;;;;;;;;;;;;;;32.04;26.32;99359.06;4420912;32;34503;-81
2022/08/13 13:21:43;;;;;;;;;;;;;;;32.36;26.48;99359.94;4404509;32;32710;-81
2022/08/13 13:24:15;;;;;;;;;;;;;;;32.25;26.06;99353.28;4409318;32;32755;-82
2022/08/13 13:26:52;;;;;;;;;;;;;;;31.84;26.22;99354.50;4406438;32;33816;-81
2022/08/13 13:29:32;;;;;;;;;;;;;;;31.97;27.34;99350.06;4422541;32;34111;-81
2022/08/13 13:32:05;;;;;;;;;;;;;;;31.98;26.71;99351.72;4420080;32;34410;-82
2022/08/13 13:35:00;;;;;;;;;;;;;;;32.04;26.98;99348.13;4422937;32;33151;-82
2022/08/13 13:37:43;;;;;;;;;;;;;;;32.26;24.74;99343.19;4411885;32;34203;-82
2022/08/13 13:40:40;;;;;;;;;;;;;;;32.35;25.21;99341.88;4416040;32;35000;-81
2022/08/13 13:43:15;;;;;;;;;;;;;;;32.08;25.82;99338.44;4407440;32;33218;-82
2022/08/13 13:45:53;;;;;;;;;;;;;;;31.91;26.10;99326.38;4422903;32;33992;-81
2022/08/13 13:48:40;;;;;;;;;;;;;;;31.67;26.54;99328.72;4422222;32;34839;-82
2022/08/13 13:51:11;;;;;;;;;;;;;;;31.96;25.29;99329.28;4421881;32;33974;-81
2022/08/13 13:53:42;;;;;;;;;;;;;;;32.28;25.30;99327.41;4422090;32;33907;-81
2022/08/13 13:56:32;;;;;;;;;;;;;;;32.27;25.24;99326.56;4419517;32;32341;-82
2022/08/13 13:59:02;;;;;;;;;;;;;;;32.10;26.46;99328.16;4422885;32;34191;-81
2022/08/13 14:01:33;;;;;;;;;;;;;;;32.29;24.96;99329.94;4421350;32;34096;-82
2022/08/13 14:04:25;;;;;;;;;;;;;;;32.21;24.79;99324.72;4422825;32;34773;-82
2022/08/13 14:07:04;;;;;;;;;;;;;;;32.43;24.93;99327.12;4421623;32;33423;-82
2022/08/13 14:09:54;;;;;;;;;;;;;;;32.51;23.86;99322.25;4415830;32;35028;-81
2022/08/13 14:12:37;;;;;;;;;;;;;;;32.35;25.01;99320.88;4414074;32;33284;-81